sensor_id;sensor_type;location;lat;lon;timestamp;P1;durP1;ratioP1;P2;durP2;ratioP2
438;SDS011;206;48.782;9.252;2022-08-25T00:00:44;5.30;;;4.60;;
438;SDS011;206;48.782;9.252;2022-08-25T00:03:11;6.73;;;5.17;;
438;SDS011;206;48.782;9.252;2022-08-25T00:05:37;5.67;;;5.10;;
438;SDS011;206;48.782;9.252;2022-08-25T00:08:03;5.10;;;4.80;;
438;SDS011;206;48.782;9.252;2022-08-25T00:10:30;8.47;;;5.70;;
438;SDS011;206;48.782;9.252;2022-08-25T00:12:58;4.80;;;4.50;;
438;SDS011;206;48.782;9.252;2022-08-25T00:15:24;5.50;;;4.63;;
438;SDS011;206;48.782;9.252;2022-08-25T00:17:50;5.57;;;5.27;;
438;SDS011;206;48.782;9.252;2022-08-25T00:20:16;5.33;;;5.03;;
438;SDS011;206;48.782;9.252;2022-08-25T00:22:41;9.50;;;6.30;;
438;SDS011;206;48.782;9.252;2022-08-25T00:25:07;6.47;;;5.23;;
438;SDS011;206;48.782;9.252;2022-08-25T00:27:33;7.03;;;5.47;;
438;SDS011;206;48.782;9.252;2022-08-25T00:29:59;6.80;;;5.73;;
438;SDS011;206;48.782;9.252;2022-08-25T00:32:25;6.73;;;5.50;;
438;SDS011;206;48.782;9.252;2022-08-25T00:34:51;9.10;;;6.20;;
438;SDS011;206;48.782;9.252;2022-08-25T00:37:17;7.90;;;6.23;;
438;SDS011;206;48.782;9.252;2022-08-25T00:39:44;7.30;;;5.63;;
438;SDS011;206;48.782;9.252;2022-08-25T00:42:10;7.77;;;7.43;;
438;SDS011;206;48.782;9.252;2022-08-25T00:44:36;8.43;;;7.43;;
438;SDS011;206;48.782;9.252;2022-08-25T00:47:03;7.97;;;7.63;;
438;SDS011;206;48.782;9.252;2022-08-25T00:49:34;10.43;;;7.10;;
438;SDS011;206;48.782;9.252;2022-08-25T00:52:09;8.60;;;6.87;;
438;SDS011;206;48.782;9.252;2022-08-25T00:54:43;8.70;;;6.37;;
438;SDS011;206;48.782;9.252;2022-08-25T00:57:14;8.77;;;7.30;;
438;SDS011;206;48.782;9.252;2022-08-25T00:59:43;8.07;;;5.77;;
438;SDS011;206;48.782;9.252;2022-08-25T01:02:09;11.63;;;7.63;;
438;SDS011;206;48.782;9.252;2022-08-25T01:04:35;9.60;;;7.50;;
438;SDS011;206;48.782;9.252;2022-08-25T01:07:02;7.97;;;6.00;;
438;SDS011;206;48.782;9.252;2022-08-25T01:09:28;6.47;;;6.10;;
438;SDS011;206;48.782;9.252;2022-08-25T01:11:58;8.13;;;6.30;;
438;SDS011;206;48.782;9.252;2022-08-25T01:14:25;7.30;;;5.33;;
438;SDS011;206;48.782;9.252;2022-08-25T01:16:52;10.50;;;6.00;;
438;SDS011;206;48.782;9.252;2022-08-25T01:19:18;5.73;;;5.43;;
438;SDS011;206;48.782;9.252;2022-08-25T01:21:46;6.83;;;6.30;;
438;SDS011;206;48.782;9.252;2022-08-25T01:24:57;8.60;;;6.20;;
438;SDS011;206;48.782;9.252;2022-08-25T01:27:10;7.37;;;5.77;;
438;SDS011;206;48.782;9.252;2022-08-25T01:29:37;8.03;;;5.30;;
438;SDS011;206;48.782;9.252;2022-08-25T01:32:04;5.40;;;5.10;;
438;SDS011;206;48.782;9.252;2022-08-25T01:34:34;10.43;;;5.70;;
438;SDS011;206;48.782;9.252;2022-08-25T01:37:01;5.40;;;5.10;;
438;SDS011;206;48.782;9.252;2022-08-25T01:39:29;5.53;;;4.83;;
438;SDS011;206;48.782;9.252;2022-08-25T01:44:42;5.27;;;4.97;;
438;SDS011;206;48.782;9.252;2022-08-25T01:47:10;6.33;;;5.70;;
438;SDS011;206;48.782;9.252;2022-08-25T01:49:36;5.70;;;4.90;;
438;SDS011;206;48.782;9.252;2022-08-25T01:54:41;6.77;;;5.53;;
438;SDS011;206;48.782;9.252;2022-08-25T01:57:06;10.90;;;6.10;;
438;SDS011;206;48.782;9.252;2022-08-25T01:59:33;9.23;;;6.40;;
438;SDS011;206;48.782;9.252;2022-08-25T02:01:58;10.50;;;6.67;;
438;SDS011;206;48.782;9.252;2022-08-25T02:04:24;11.47;;;6.57;;
438;SDS011;206;48.782;9.252;2022-08-25T02:06:53;11.17;;;6.90;;
438;SDS011;206;48.782;9.252;2022-08-25T02:09:19;9.43;;;7.07;;
438;SDS011;206;48.782;9.252;2022-08-25T02:11:45;10.70;;;7.07;;
438;SDS011;206;48.782;9.252;2022-08-25T02:14:12;7.60;;;6.90;;
438;SDS011;206;48.782;9.252;2022-08-25T02:16:39;17.33;;;7.40;;
438;SDS011;206;48.782;9.252;2022-08-25T02:19:09;10.17;;;6.90;;
438;SDS011;206;48.782;9.252;2022-08-25T02:21:36;10.57;;;7.03;;
438;SDS011;206;48.782;9.252;2022-08-25T02:24:02;9.37;;;7.53;;
438;SDS011;206;48.782;9.252;2022-08-25T02:26:28;9.90;;;7.00;;
438;SDS011;206;48.782;9.252;2022-08-25T02:28:54;11.10;;;7.60;;
438;SDS011;206;48.782;9.252;2022-08-25T02:31:21;7.87;;;6.90;;
438;SDS011;206;48.782;9.252;2022-08-25T02:33:48;11.90;;;6.80;;
438;SDS011;206;48.782;9.252;2022-08-25T02:36:14;10.20;;;6.70;;
438;SDS011;206;48.782;9.252;2022-08-25T02:38:40;8.77;;;7.37;;
438;SDS011;206;48.782;9.252;2022-08-25T02:41:10;9.47;;;7.23;;
438;SDS011;206;48.782;9.252;2022-08-25T02:43:38;7.70;;;5.80;;
438;SDS011;206;48.782;9.252;2022-08-25T02:46:05;6.93;;;6.47;;
438;SDS011;206;48.782;9.252;2022-08-25T02:48:31;10.00;;;6.47;;
438;SDS011;206;48.782;9.252;2022-08-25T02:50:58;7.70;;;6.23;;
438;SDS011;206;48.782;9.252;2022-08-25T02:53:25;7.73;;;5.47;;
438;SDS011;206;48.782;9.252;2022-08-25T02:55:52;6.47;;;6.07;;
438;SDS011;206;48.782;9.252;2022-08-25T02:58:18;8.10;;;6.53;;
438;SDS011;206;48.782;9.252;2022-08-25T03:00:45;6.33;;;5.97;;
438;SDS011;206;48.782;9.252;2022-08-25T03:03:11;6.77;;;6.37;;
438;SDS011;206;48.782;9.252;2022-08-25T03:05:37;7.40;;;6.30;;
438;SDS011;206;48.782;9.252;2022-08-25T03:08:04;7.13;;;6.37;;
438;SDS011;206;48.782;9.252;2022-08-25T03:10:31;6.10;;;5.83;;
438;SDS011;206;48.782;9.252;2022-08-25T03:12:56;6.70;;;6.33;;
438;SDS011;206;48.782;9.252;2022-08-25T03:15:22;10.10;;;5.97;;
438;SDS011;206;48.782;9.252;2022-08-25T03:17:51;7.20;;;5.43;;
438;SDS011;206;48.782;9.252;2022-08-25T03:20:18;6.90;;;5.80;;
438;SDS011;206;48.782;9.252;2022-08-25T03:22:45;11.17;;;5.93;;
438;SDS011;206;48.782;9.252;2022-08-25T03:25:11;4.80;;;4.53;;
438;SDS011;206;48.782;9.252;2022-08-25T03:27:55;10.90;;;6.07;;
438;SDS011;206;48.782;9.252;2022-08-25T03:30:21;7.30;;;5.83;;
438;SDS011;206;48.782;9.252;2022-08-25T03:32:47;5.80;;;5.50;;
438;SDS011;206;48.782;9.252;2022-08-25T03:35:12;6.27;;;5.93;;
438;SDS011;206;48.782;9.252;2022-08-25T03:37:38;6.70;;;6.30;;
438;SDS011;206;48.782;9.252;2022-08-25T03:40:05;5.23;;;4.93;;
438;SDS011;206;48.782;9.252;2022-08-25T03:42:33;8.73;;;6.30;;
438;SDS011;206;48.782;9.252;2022-08-25T03:45:01;8.33;;;5.00;;
438;SDS011;206;48.782;9.252;2022-08-25T03:47:28;6.43;;;5.83;;
438;SDS011;206;48.782;9.252;2022-08-25T03:49:55;5.87;;;5.60;;
438;SDS011;206;48.782;9.252;2022-08-25T03:52:20;7.97;;;5.70;;
438;SDS011;206;48.782;9.252;2022-08-25T03:54:46;7.80;;;5.27;;
438;SDS011;206;48.782;9.252;2022-08-25T03:57:12;5.97;;;5.67;;
438;SDS011;206;48.782;9.252;2022-08-25T03:59:37;4.97;;;4.70;;
438;SDS011;206;48.782;9.252;2022-08-25T04:02:04;8.10;;;5.27;;
438;SDS011;206;48.782;9.252;2022-08-25T04:04:30;9.20;;;4.90;;
438;SDS011;206;48.782;9.252;2022-08-25T04:06:55;5.70;;;5.10;;
438;SDS011;206;48.782;9.252;2022-08-25T04:09:22;6.57;;;5.83;;
438;SDS011;206;48.782;9.252;2022-08-25T04:11:48;5.80;;;5.50;;
438;SDS011;206;48.782;9.252;2022-08-25T04:14:14;6.53;;;5.77;;
438;SDS011;206;48.782;9.252;2022-08-25T04:16:40;4.87;;;4.57;;
438;SDS011;206;48.782;9.252;2022-08-25T04:19:06;6.67;;;6.27;;
438;SDS011;206;48.782;9.252;2022-08-25T04:21:34;7.13;;;6.30;;
438;SDS011;206;48.782;9.252;2022-08-25T04:24:04;6.23;;;5.03;;
438;SDS011;206;48.782;9.252;2022-08-25T04:26:33;7.73;;;5.73;;
438;SDS011;206;48.782;9.252;2022-08-25T04:29:03;5.67;;;4.40;;
438;SDS011;206;48.782;9.252;2022-08-25T04:31:30;8.30;;;6.27;;
438;SDS011;206;48.782;9.252;2022-08-25T04:34:00;8.00;;;5.63;;
438;SDS011;206;48.782;9.252;2022-08-25T04:36:26;5.53;;;5.07;;
438;SDS011;206;48.782;9.252;2022-08-25T04:38:52;8.17;;;4.60;;
438;SDS011;206;48.782;9.252;2022-08-25T04:41:19;5.63;;;5.33;;
438;SDS011;206;48.782;9.252;2022-08-25T04:43:47;9.10;;;6.20;;
438;SDS011;206;48.782;9.252;2022-08-25T04:46:17;4.83;;;4.53;;
438;SDS011;206;48.782;9.252;2022-08-25T04:48:47;6.93;;;6.17;;
438;SDS011;206;48.782;9.252;2022-08-25T04:51:15;6.37;;;6.00;;
438;SDS011;206;48.782;9.252;2022-08-25T04:53:43;9.47;;;5.60;;
438;SDS011;206;48.782;9.252;2022-08-25T04:56:10;7.77;;;5.77;;
438;SDS011;206;48.782;9.252;2022-08-25T04:58:38;9.47;;;5.20;;
438;SDS011;206;48.782;9.252;2022-08-25T05:01:14;6.50;;;5.87;;
438;SDS011;206;48.782;9.252;2022-08-25T05:03:43;7.27;;;5.90;;
438;SDS011;206;48.782;9.252;2022-08-25T05:06:10;6.80;;;5.53;;
438;SDS011;206;48.782;9.252;2022-08-25T05:08:36;5.50;;;4.90;;
438;SDS011;206;48.782;9.252;2022-08-25T05:11:05;6.87;;;6.53;;
438;SDS011;206;48.782;9.252;2022-08-25T05:13:38;8.03;;;6.30;;
438;SDS011;206;48.782;9.252;2022-08-25T05:16:04;8.60;;;7.30;;
438;SDS011;206;48.782;9.252;2022-08-25T05:18:30;6.17;;;5.67;;
438;SDS011;206;48.782;9.252;2022-08-25T05:21:00;25.23;;;7.23;;
438;SDS011;206;48.782;9.252;2022-08-25T05:23:30;22.63;;;7.30;;
438;SDS011;206;48.782;9.252;2022-08-25T05:25:59;9.40;;;6.33;;
438;SDS011;206;48.782;9.252;2022-08-25T05:28:27;7.30;;;6.13;;
438;SDS011;206;48.782;9.252;2022-08-25T05:30:56;7.70;;;6.60;;
438;SDS011;206;48.782;9.252;2022-08-25T05:33:22;9.50;;;6.27;;
438;SDS011;206;48.782;9.252;2022-08-25T05:35:48;6.00;;;5.73;;
438;SDS011;206;48.782;9.252;2022-08-25T05:38:14;8.50;;;6.10;;
438;SDS011;206;48.782;9.252;2022-08-25T05:40:39;8.50;;;6.97;;
438;SDS011;206;48.782;9.252;2022-08-25T05:43:05;6.00;;;5.70;;
438;SDS011;206;48.782;9.252;2022-08-25T05:45:31;8.90;;;6.77;;
438;SDS011;206;48.782;9.252;2022-08-25T05:47:56;16.27;;;7.40;;
438;SDS011;206;48.782;9.252;2022-08-25T05:50:22;11.77;;;6.70;;
438;SDS011;206;48.782;9.252;2022-08-25T05:52:48;21.57;;;7.77;;
438;SDS011;206;48.782;9.252;2022-08-25T05:55:13;19.60;;;7.17;;
438;SDS011;206;48.782;9.252;2022-08-25T05:57:39;10.00;;;7.33;;
438;SDS011;206;48.782;9.252;2022-08-25T06:00:05;7.53;;;7.10;;
438;SDS011;206;48.782;9.252;2022-08-25T06:02:31;8.23;;;6.30;;
438;SDS011;206;48.782;9.252;2022-08-25T06:05:15;7.70;;;6.87;;
438;SDS011;206;48.782;9.252;2022-08-25T06:07:44;10.43;;;7.43;;
438;SDS011;206;48.782;9.252;2022-08-25T06:10:11;18.40;;;9.47;;
438;SDS011;206;48.782;9.252;2022-08-25T06:12:38;8.27;;;7.30;;
438;SDS011;206;48.782;9.252;2022-08-25T06:15:08;16.07;;;9.00;;
438;SDS011;206;48.782;9.252;2022-08-25T06:17:35;10.90;;;8.20;;
438;SDS011;206;48.782;9.252;2022-08-25T06:20:06;10.87;;;8.73;;
438;SDS011;206;48.782;9.252;2022-08-25T06:22:36;12.37;;;7.77;;
438;SDS011;206;48.782;9.252;2022-08-25T06:25:03;13.43;;;8.73;;
438;SDS011;206;48.782;9.252;2022-08-25T06:27:29;26.53;;;9.63;;
438;SDS011;206;48.782;9.252;2022-08-25T06:29:55;16.10;;;8.77;;
438;SDS011;206;48.782;9.252;2022-08-25T06:32:20;15.70;;;7.80;;
438;SDS011;206;48.782;9.252;2022-08-25T06:34:46;7.70;;;7.27;;
438;SDS011;206;48.782;9.252;2022-08-25T06:37:12;12.43;;;7.13;;
438;SDS011;206;48.782;9.252;2022-08-25T06:39:37;10.80;;;7.33;;
438;SDS011;206;48.782;9.252;2022-08-25T06:42:03;13.87;;;8.10;;
438;SDS011;206;48.782;9.252;2022-08-25T06:44:29;11.23;;;6.27;;
438;SDS011;206;48.782;9.252;2022-08-25T06:46:55;12.30;;;7.60;;
438;SDS011;206;48.782;9.252;2022-08-25T06:49:21;12.83;;;7.37;;
438;SDS011;206;48.782;9.252;2022-08-25T06:51:47;7.50;;;7.07;;
438;SDS011;206;48.782;9.252;2022-08-25T06:54:13;7.23;;;6.43;;
438;SDS011;206;48.782;9.252;2022-08-25T06:56:39;7.47;;;6.40;;
438;SDS011;206;48.782;9.252;2022-08-25T06:59:07;7.87;;;7.47;;
438;SDS011;206;48.782;9.252;2022-08-25T07:01:37;8.30;;;6.77;;
438;SDS011;206;48.782;9.252;2022-08-25T07:04:06;18.10;;;8.53;;
438;SDS011;206;48.782;9.252;2022-08-25T07:06:32;12.70;;;8.03;;
438;SDS011;206;48.782;9.252;2022-08-25T07:09:03;10.00;;;7.87;;
438;SDS011;206;48.782;9.252;2022-08-25T07:11:29;13.40;;;7.90;;
438;SDS011;206;48.782;9.252;2022-08-25T07:13:58;9.00;;;6.90;;
438;SDS011;206;48.782;9.252;2022-08-25T07:16:25;9.60;;;7.03;;
438;SDS011;206;48.782;9.252;2022-08-25T07:18:51;12.80;;;7.40;;
438;SDS011;206;48.782;9.252;2022-08-25T07:21:20;8.40;;;7.67;;
438;SDS011;206;48.782;9.252;2022-08-25T07:23:50;8.67;;;5.70;;
438;SDS011;206;48.782;9.252;2022-08-25T07:26:20;7.37;;;6.40;;
438;SDS011;206;48.782;9.252;2022-08-25T07:28:48;7.60;;;6.43;;
438;SDS011;206;48.782;9.252;2022-08-25T07:31:14;9.20;;;7.13;;
438;SDS011;206;48.782;9.252;2022-08-25T07:33:40;14.73;;;7.23;;
438;SDS011;206;48.782;9.252;2022-08-25T07:36:24;7.90;;;6.90;;
438;SDS011;206;48.782;9.252;2022-08-25T07:38:50;8.10;;;6.37;;
438;SDS011;206;48.782;9.252;2022-08-25T07:41:16;10.73;;;7.00;;
438;SDS011;206;48.782;9.252;2022-08-25T07:43:42;9.90;;;6.97;;
438;SDS011;206;48.782;9.252;2022-08-25T07:46:08;8.17;;;5.93;;
438;SDS011;206;48.782;9.252;2022-08-25T07:48:34;5.90;;;5.10;;
438;SDS011;206;48.782;9.252;2022-08-25T07:51:05;9.50;;;6.17;;
438;SDS011;206;48.782;9.252;2022-08-25T07:53:32;7.67;;;5.80;;
438;SDS011;206;48.782;9.252;2022-08-25T07:55:58;7.30;;;6.07;;
438;SDS011;206;48.782;9.252;2022-08-25T07:58:23;9.60;;;5.00;;
438;SDS011;206;48.782;9.252;2022-08-25T08:00:49;11.90;;;6.30;;
438;SDS011;206;48.782;9.252;2022-08-25T08:03:17;11.53;;;6.00;;
438;SDS011;206;48.782;9.252;2022-08-25T08:05:43;5.30;;;5.00;;
438;SDS011;206;48.782;9.252;2022-08-25T08:08:09;9.83;;;5.67;;
438;SDS011;206;48.782;9.252;2022-08-25T08:10:37;9.87;;;5.73;;
438;SDS011;206;48.782;9.252;2022-08-25T08:13:04;5.97;;;5.70;;
438;SDS011;206;48.782;9.252;2022-08-25T08:15:30;7.40;;;5.73;;
438;SDS011;206;48.782;9.252;2022-08-25T08:17:59;7.97;;;5.70;;
438;SDS011;206;48.782;9.252;2022-08-25T08:20:25;6.43;;;5.83;;
438;SDS011;206;48.782;9.252;2022-08-25T08:22:51;7.17;;;5.90;;
438;SDS011;206;48.782;9.252;2022-08-25T08:25:16;9.40;;;6.43;;
438;SDS011;206;48.782;9.252;2022-08-25T08:27:42;5.50;;;5.03;;
438;SDS011;206;48.782;9.252;2022-08-25T08:30:10;6.00;;;5.70;;
438;SDS011;206;48.782;9.252;2022-08-25T08:32:36;5.77;;;5.47;;
438;SDS011;206;48.782;9.252;2022-08-25T08:35:02;5.73;;;5.43;;
438;SDS011;206;48.782;9.252;2022-08-25T08:37:29;6.93;;;5.40;;
438;SDS011;206;48.782;9.252;2022-08-25T08:39:55;5.90;;;5.13;;
438;SDS011;206;48.782;9.252;2022-08-25T08:47:51;5.93;;;5.63;;
438;SDS011;206;48.782;9.252;2022-08-25T08:56:47;5.90;;;5.13;;
438;SDS011;206;48.782;9.252;2022-08-25T08:59:28;5.70;;;5.30;;
438;SDS011;206;48.782;9.252;2022-08-25T09:02:05;4.57;;;4.30;;
438;SDS011;206;48.782;9.252;2022-08-25T09:04:42;5.00;;;4.70;;
438;SDS011;206;48.782;9.252;2022-08-25T09:07:20;5.50;;;5.20;;
438;SDS011;206;48.782;9.252;2022-08-25T09:09:49;7.97;;;5.50;;
438;SDS011;206;48.782;9.252;2022-08-25T09:18:20;5.23;;;4.80;;
438;SDS011;206;48.782;9.252;2022-08-25T09:21:02;6.07;;;4.93;;
438;SDS011;206;48.782;9.252;2022-08-25T09:26:33;5.53;;;4.77;;
438;SDS011;206;48.782;9.252;2022-08-25T09:29:07;5.60;;;5.30;;
438;SDS011;206;48.782;9.252;2022-08-25T09:31:43;6.60;;;5.60;;
438;SDS011;206;48.782;9.252;2022-08-25T09:34:19;6.60;;;6.20;;
438;SDS011;206;48.782;9.252;2022-08-25T09:36:47;7.23;;;5.90;;
438;SDS011;206;48.782;9.252;2022-08-25T09:39:16;5.80;;;5.50;;
438;SDS011;206;48.782;9.252;2022-08-25T09:41:51;5.33;;;5.03;;
438;SDS011;206;48.782;9.252;2022-08-25T09:44:40;5.77;;;5.47;;
438;SDS011;206;48.782;9.252;2022-08-25T09:49:47;5.43;;;5.13;;
438;SDS011;206;48.782;9.252;2022-08-25T09:54:53;5.20;;;4.90;;
438;SDS011;206;48.782;9.252;2022-08-25T10:02:42;4.83;;;4.53;;
438;SDS011;206;48.782;9.252;2022-08-25T10:05:20;6.00;;;5.70;;
438;SDS011;206;48.782;9.252;2022-08-25T10:07:58;5.00;;;4.67;;
438;SDS011;206;48.782;9.252;2022-08-25T10:10:34;5.33;;;5.03;;
438;SDS011;206;48.782;9.252;2022-08-25T10:13:11;4.50;;;4.20;;
438;SDS011;206;48.782;9.252;2022-08-25T10:15:38;5.50;;;5.20;;
438;SDS011;206;48.782;9.252;2022-08-25T10:18:24;6.43;;;6.03;;
438;SDS011;206;48.782;9.252;2022-08-25T10:23:28;4.97;;;4.67;;
438;SDS011;206;48.782;9.252;2022-08-25T10:25:55;4.67;;;4.37;;
438;SDS011;206;48.782;9.252;2022-08-25T10:28:31;3.93;;;3.73;;
438;SDS011;206;48.782;9.252;2022-08-25T10:36:31;6.43;;;5.67;;
438;SDS011;206;48.782;9.252;2022-08-25T10:39:01;7.43;;;4.80;;
438;SDS011;206;48.782;9.252;2022-08-25T10:48:00;4.83;;;3.60;;
438;SDS011;206;48.782;9.252;2022-08-25T10:55:55;4.63;;;4.27;;
438;SDS011;206;48.782;9.252;2022-08-25T11:03:47;6.30;;;3.67;;
438;SDS011;206;48.782;9.252;2022-08-25T11:06:29;4.03;;;3.70;;
438;SDS011;206;48.782;9.252;2022-08-25T11:09:04;5.43;;;4.13;;
438;SDS011;206;48.782;9.252;2022-08-25T11:14:07;5.57;;;4.17;;
438;SDS011;206;48.782;9.252;2022-08-25T11:16:42;4.50;;;4.20;;
438;SDS011;206;48.782;9.252;2022-08-25T11:19:31;7.50;;;4.10;;
438;SDS011;206;48.782;9.252;2022-08-25T11:22:03;14.13;;;4.23;;
438;SDS011;206;48.782;9.252;2022-08-25T11:27:42;4.43;;;4.13;;
438;SDS011;206;48.782;9.252;2022-08-25T11:30:19;4.00;;;3.47;;
438;SDS011;206;48.782;9.252;2022-08-25T11:32:49;4.60;;;4.30;;
438;SDS011;206;48.782;9.252;2022-08-25T11:35:30;3.87;;;3.50;;
438;SDS011;206;48.782;9.252;2022-08-25T11:41:10;7.03;;;3.80;;
438;SDS011;206;48.782;9.252;2022-08-25T11:43:53;4.70;;;4.10;;
438;SDS011;206;48.782;9.252;2022-08-25T11:47:24;5.10;;;4.00;;
438;SDS011;206;48.782;9.252;2022-08-25T11:49:49;3.63;;;3.43;;
438;SDS011;206;48.782;9.252;2022-08-25T11:55:11;3.80;;;3.60;;
438;SDS011;206;48.782;9.252;2022-08-25T11:57:45;4.73;;;4.47;;
438;SDS011;206;48.782;9.252;2022-08-25T12:14:47;3.83;;;3.63;;
438;SDS011;206;48.782;9.252;2022-08-25T12:35:30;4.83;;;3.60;;
438;SDS011;206;48.782;9.252;2022-08-25T12:45:54;3.47;;;3.27;;
438;SDS011;206;48.782;9.252;2022-08-25T12:51:59;3.60;;;3.40;;
438;SDS011;206;48.782;9.252;2022-08-25T13:00:21;4.83;;;4.43;;
438;SDS011;206;48.782;9.252;2022-08-25T13:06:26;3.70;;;3.50;;
438;SDS011;206;48.782;9.252;2022-08-25T13:08:56;3.57;;;3.33;;
438;SDS011;206;48.782;9.252;2022-08-25T13:14:29;3.70;;;3.50;;
438;SDS011;206;48.782;9.252;2022-08-25T13:17:02;4.03;;;3.70;;
438;SDS011;206;48.782;9.252;2022-08-25T13:19:29;5.03;;;3.00;;
438;SDS011;206;48.782;9.252;2022-08-25T13:21:56;3.90;;;3.70;;
438;SDS011;206;48.782;9.252;2022-08-25T13:24:24;11.33;;;3.60;;
438;SDS011;206;48.782;9.252;2022-08-25T13:27:02;5.30;;;3.00;;
438;SDS011;206;48.782;9.252;2022-08-25T13:29:31;4.43;;;3.40;;
438;SDS011;206;48.782;9.252;2022-08-25T13:31:59;4.33;;;3.60;;
438;SDS011;206;48.782;9.252;2022-08-25T13:34:31;3.30;;;2.83;;
438;SDS011;206;48.782;9.252;2022-08-25T13:37:22;3.50;;;3.30;;
438;SDS011;206;48.782;9.252;2022-08-25T13:42:50;2.70;;;2.50;;
438;SDS011;206;48.782;9.252;2022-08-25T13:45:22;3.13;;;2.93;;
438;SDS011;206;48.782;9.252;2022-08-25T13:47:51;3.60;;;2.93;;
438;SDS011;206;48.782;9.252;2022-08-25T13:53:21;4.27;;;3.13;;
438;SDS011;206;48.782;9.252;2022-08-25T13:55:53;3.07;;;2.87;;
438;SDS011;206;48.782;9.252;2022-08-25T13:58:31;5.30;;;2.97;;
438;SDS011;206;48.782;9.252;2022-08-25T14:01:05;3.03;;;2.60;;
438;SDS011;206;48.782;9.252;2022-08-25T14:03:49;5.87;;;3.00;;
438;SDS011;206;48.782;9.252;2022-08-25T14:14:32;2.90;;;2.33;;
438;SDS011;206;48.782;9.252;2022-08-25T14:17:00;2.50;;;2.30;;
438;SDS011;206;48.782;9.252;2022-08-25T14:19:26;4.60;;;2.80;;
438;SDS011;206;48.782;9.252;2022-08-25T14:21:52;4.87;;;2.63;;
438;SDS011;206;48.782;9.252;2022-08-25T14:24:20;4.50;;;3.17;;
438;SDS011;206;48.782;9.252;2022-08-25T14:26:47;3.50;;;3.30;;
438;SDS011;206;48.782;9.252;2022-08-25T14:29:13;3.90;;;3.70;;
438;SDS011;206;48.782;9.252;2022-08-25T14:31:41;4.00;;;3.13;;
438;SDS011;206;48.782;9.252;2022-08-25T14:34:12;3.03;;;2.83;;
438;SDS011;206;48.782;9.252;2022-08-25T14:36:41;9.60;;;3.43;;
438;SDS011;206;48.782;9.252;2022-08-25T14:39:07;3.10;;;2.90;;
438;SDS011;206;48.782;9.252;2022-08-25T14:41:34;4.20;;;2.83;;
438;SDS011;206;48.782;9.252;2022-08-25T14:44:02;3.67;;;3.47;;
438;SDS011;206;48.782;9.252;2022-08-25T14:46:29;3.23;;;3.03;;
438;SDS011;206;48.782;9.252;2022-08-25T14:48:59;3.30;;;3.10;;
438;SDS011;206;48.782;9.252;2022-08-25T14:51:30;6.97;;;2.90;;
438;SDS011;206;48.782;9.252;2022-08-25T14:54:01;4.50;;;3.20;;
438;SDS011;206;48.782;9.252;2022-08-25T14:56:29;4.20;;;3.30;;
438;SDS011;206;48.782;9.252;2022-08-25T14:58:55;7.23;;;3.27;;
438;SDS011;206;48.782;9.252;2022-08-25T15:01:22;3.30;;;3.10;;
438;SDS011;206;48.782;9.252;2022-08-25T15:03:49;7.07;;;6.67;;
438;SDS011;206;48.782;9.252;2022-08-25T15:06:19;3.20;;;3.00;;
438;SDS011;206;48.782;9.252;2022-08-25T15:08:44;3.30;;;3.10;;
438;SDS011;206;48.782;9.252;2022-08-25T15:11:29;4.03;;;2.67;;
438;SDS011;206;48.782;9.252;2022-08-25T15:13:55;5.30;;;3.60;;
438;SDS011;206;48.782;9.252;2022-08-25T15:16:26;3.77;;;2.73;;
438;SDS011;206;48.782;9.252;2022-08-25T15:18:56;4.53;;;3.67;;
438;SDS011;206;48.782;9.252;2022-08-25T15:21:22;3.73;;;3.53;;
438;SDS011;206;48.782;9.252;2022-08-25T15:23:48;6.00;;;3.10;;
438;SDS011;206;48.782;9.252;2022-08-25T15:26:14;3.97;;;3.77;;
438;SDS011;206;48.782;9.252;2022-08-25T15:28:42;3.50;;;3.30;;
438;SDS011;206;48.782;9.252;2022-08-25T15:31:13;3.10;;;2.90;;
438;SDS011;206;48.782;9.252;2022-08-25T15:33:40;3.27;;;3.00;;
438;SDS011;206;48.782;9.252;2022-08-25T15:36:06;3.20;;;3.00;;
438;SDS011;206;48.782;9.252;2022-08-25T15:38:35;6.30;;;3.20;;
438;SDS011;206;48.782;9.252;2022-08-25T15:41:01;3.20;;;3.00;;
438;SDS011;206;48.782;9.252;2022-08-25T15:43:27;5.73;;;3.50;;
438;SDS011;206;48.782;9.252;2022-08-25T15:45:53;3.50;;;3.30;;
438;SDS011;206;48.782;9.252;2022-08-25T15:48:19;3.70;;;2.97;;
438;SDS011;206;48.782;9.252;2022-08-25T15:50:44;6.40;;;3.07;;
438;SDS011;206;48.782;9.252;2022-08-25T15:53:11;3.87;;;3.17;;
438;SDS011;206;48.782;9.252;2022-08-25T15:55:38;3.07;;;2.87;;
438;SDS011;206;48.782;9.252;2022-08-25T15:58:04;4.37;;;3.00;;
438;SDS011;206;48.782;9.252;2022-08-25T16:00:30;3.20;;;3.10;;
438;SDS011;206;48.782;9.252;2022-08-25T16:02:55;3.27;;;2.90;;
438;SDS011;206;48.782;9.252;2022-08-25T16:05:21;3.43;;;3.23;;
438;SDS011;206;48.782;9.252;2022-08-25T16:07:47;3.80;;;3.50;;
438;SDS011;206;48.782;9.252;2022-08-25T16:10:13;3.33;;;3.13;;
438;SDS011;206;48.782;9.252;2022-08-25T16:12:39;11.93;;;3.73;;
438;SDS011;206;48.782;9.252;2022-08-25T16:15:06;2.60;;;2.40;;
438;SDS011;206;48.782;9.252;2022-08-25T16:17:32;7.63;;;4.10;;
438;SDS011;206;48.782;9.252;2022-08-25T16:19:58;3.10;;;2.90;;
438;SDS011;206;48.782;9.252;2022-08-25T16:22:23;3.77;;;3.20;;
438;SDS011;206;48.782;9.252;2022-08-25T16:24:49;3.60;;;2.97;;
438;SDS011;206;48.782;9.252;2022-08-25T16:27:15;3.57;;;3.37;;
438;SDS011;206;48.782;9.252;2022-08-25T16:29:42;5.23;;;3.30;;
438;SDS011;206;48.782;9.252;2022-08-25T16:32:08;4.07;;;3.83;;
438;SDS011;206;48.782;9.252;2022-08-25T16:34:36;5.30;;;3.03;;
438;SDS011;206;48.782;9.252;2022-08-25T16:37:03;4.00;;;3.17;;
438;SDS011;206;48.782;9.252;2022-08-25T16:39:29;4.30;;;3.60;;
438;SDS011;206;48.782;9.252;2022-08-25T16:41:55;3.33;;;3.13;;
438;SDS011;206;48.782;9.252;2022-08-25T16:44:21;3.57;;;3.37;;
438;SDS011;206;48.782;9.252;2022-08-25T16:46:47;4.87;;;3.37;;
438;SDS011;206;48.782;9.252;2022-08-25T16:49:13;6.10;;;2.87;;
438;SDS011;206;48.782;9.252;2022-08-25T16:51:40;3.80;;;3.17;;
438;SDS011;206;48.782;9.252;2022-08-25T16:54:06;3.67;;;3.47;;
438;SDS011;206;48.782;9.252;2022-08-25T16:56:52;3.83;;;3.63;;
438;SDS011;206;48.782;9.252;2022-08-25T16:59:17;4.47;;;3.13;;
438;SDS011;206;48.782;9.252;2022-08-25T17:01:43;2.83;;;2.70;;
438;SDS011;206;48.782;9.252;2022-08-25T17:04:09;5.90;;;3.40;;
438;SDS011;206;48.782;9.252;2022-08-25T17:06:37;3.93;;;3.73;;
438;SDS011;206;48.782;9.252;2022-08-25T17:09:05;3.60;;;3.43;;
438;SDS011;206;48.782;9.252;2022-08-25T17:11:33;4.90;;;4.67;;
438;SDS011;206;48.782;9.252;2022-08-25T17:14:06;4.60;;;3.13;;
438;SDS011;206;48.782;9.252;2022-08-25T17:16:33;3.97;;;3.33;;
438;SDS011;206;48.782;9.252;2022-08-25T17:19:00;3.43;;;3.23;;
438;SDS011;206;48.782;9.252;2022-08-25T17:21:30;3.40;;;3.30;;
438;SDS011;206;48.782;9.252;2022-08-25T17:23:59;5.50;;;3.10;;
438;SDS011;206;48.782;9.252;2022-08-25T17:26:25;3.43;;;3.23;;
438;SDS011;206;48.782;9.252;2022-08-25T17:28:52;3.80;;;3.30;;
438;SDS011;206;48.782;9.252;2022-08-25T17:31:18;4.00;;;3.40;;
438;SDS011;206;48.782;9.252;2022-08-25T17:33:44;3.77;;;3.57;;
438;SDS011;206;48.782;9.252;2022-08-25T17:36:10;9.57;;;4.00;;
438;SDS011;206;48.782;9.252;2022-08-25T17:38:37;3.40;;;3.20;;
438;SDS011;206;48.782;9.252;2022-08-25T17:41:04;4.63;;;3.70;;
438;SDS011;206;48.782;9.252;2022-08-25T17:43:32;4.43;;;3.57;;
438;SDS011;206;48.782;9.252;2022-08-25T17:46:03;3.33;;;3.13;;
438;SDS011;206;48.782;9.252;2022-08-25T17:48:29;5.13;;;3.73;;
438;SDS011;206;48.782;9.252;2022-08-25T17:50:56;3.83;;;3.37;;
438;SDS011;206;48.782;9.252;2022-08-25T17:53:24;2.93;;;2.43;;
438;SDS011;206;48.782;9.252;2022-08-25T17:55:58;3.33;;;3.13;;
438;SDS011;206;48.782;9.252;2022-08-25T17:58:26;2.90;;;2.70;;
438;SDS011;206;48.782;9.252;2022-08-25T18:00:54;5.70;;;3.17;;
438;SDS011;206;48.782;9.252;2022-08-25T18:03:20;6.40;;;3.00;;
438;SDS011;206;48.782;9.252;2022-08-25T18:05:46;3.70;;;3.20;;
438;SDS011;206;48.782;9.252;2022-08-25T18:08:11;3.60;;;2.83;;
438;SDS011;206;48.782;9.252;2022-08-25T18:10:38;2.90;;;2.70;;
438;SDS011;206;48.782;9.252;2022-08-25T18:13:04;3.40;;;3.20;;
438;SDS011;206;48.782;9.252;2022-08-25T18:15:30;4.33;;;2.43;;